Time;durP1;ratioP1;P1;durP2;ratioP2;P2;SDS_P1;SDS_P2;PMS_P1;PMS_P2;Temp;Humidity;BMP_temperature;BMP_pressure;BME280_temperature;BME280_humidity;BME280_pressure;Samples;Min_cycle;Max_cycle;Signal;HPM_P1;HPM_P2
2023/03/19 00:01:52;;;;;;;2.10;0.65;;;;;;;7.89;100.00;100079.31;4915392;29;20064;-96
2023/03/19 00:04:18;;;;;;;1.05;0.50;;;;;;;7.93;100.00;100085.97;4933879;29;20127;-96
2023/03/19 00:06:44;;;;;;;1.85;0.57;;;;;;;7.88;100.00;100073.38;4935109;29;20027;-95
2023/03/19 00:09:10;;;;;;;1.25;0.60;;;;;;;7.79;100.00;100062.72;4935717;29;20039;-96
2023/03/19 00:11:35;;;;;;;0.98;0.35;;;;;;;7.85;100.00;100082.94;4952189;28;20032;-96
2023/03/19 00:14:01;;;;;;;6.70;0.47;;;;;;;7.91;100.00;100092.94;4935354;29;20059;-95
2023/03/19 00:16:26;;;;;;;2.33;0.68;;;;;;;7.92;100.00;100100.56;4952135;28;20490;-96
2023/03/19 00:18:52;;;;;;;4.28;0.40;;;;;;;7.80;100.00;100090.88;4936403;28;20401;-96
2023/03/19 00:21:18;;;;;;;2.22;0.57;;;;;;;7.67;100.00;100093.25;4916162;29;20471;-96
2023/03/19 00:23:43;;;;;;;2.13;0.63;;;;;;;7.53;100.00;100088.00;4916635;29;20028;-96
2023/03/19 00:26:09;;;;;;;2.38;0.30;;;;;;;7.55;100.00;100111.88;4919247;29;20517;-96
2023/03/19 00:28:36;;;;;;;5.55;0.80;;;;;;;7.44;100.00;100101.31;4919684;29;20479;-96
2023/03/19 00:31:16;;;;;;;1.10;0.43;;;;;;;7.31;100.00;100108.78;4920984;29;20032;-95
2023/03/19 00:33:42;;;;;;;2.50;0.88;;;;;;;7.41;100.00;100134.81;4951541;29;20036;-96
2023/03/19 00:36:09;;;;;;;1.92;0.35;;;;;;;7.17;100.00;100112.03;4920098;29;20412;-96
2023/03/19 00:38:35;;;;;;;1.23;0.60;;;;;;;7.20;100.00;100111.88;4920200;29;20032;-96
2023/03/19 00:41:02;;;;;;;3.13;0.60;;;;;;;7.24;100.00;100122.81;4920282;29;20063;-95
2023/03/19 00:43:28;;;;;;;2.40;0.38;;;;;;;7.02;100.00;100103.34;4920186;29;20024;-96
2023/03/19 00:45:53;;;;;;;3.35;0.80;;;;;;;6.88;100.00;100115.13;4952725;28;20032;-96
2023/03/19 00:48:20;;;;;;;0.95;0.55;;;;;;;7.03;100.00;100135.78;4920712;29;20030;-95
2023/03/19 00:50:49;;;;;;;5.13;0.70;;;;;;;6.83;100.00;100118.78;4920261;29;20060;-96
2023/03/19 00:53:15;;;;;;;5.68;2.30;;;;;;;7.01;100.00;100152.16;4920806;29;20079;-96
2023/03/19 00:55:40;;;;;;;5.00;0.80;;;;;;;6.89;100.00;100151.00;4920409;29;20032;-96
2023/03/19 00:58:06;;;;;;;4.70;0.95;;;;;;;6.72;100.00;100135.56;4921384;29;20442;-96
2023/03/19 01:00:35;;;;;;;3.42;0.95;;;;;;;6.72;100.00;100143.25;4920510;29;20177;-96
2023/03/19 01:03:01;;;;;;;4.53;0.82;;;;;;;6.65;100.00;100160.66;4919156;29;20028;-96
2023/03/19 01:05:27;;;;;;;2.70;0.60;;;;;;;6.75;100.00;100173.88;4919058;29;20028;-96
2023/03/19 01:07:52;;;;;;;5.30;1.15;;;;;;;6.64;100.00;100136.75;4919730;29;20491;-94
2023/03/19 01:10:21;;;;;;;5.47;0.90;;;;;;;6.64;100.00;100152.13;4920038;29;20399;-96
2023/03/19 01:12:46;;;;;;;2.08;0.80;;;;;;;6.46;100.00;100154.69;4919999;29;20110;-96
2023/03/19 01:15:12;;;;;;;4.53;0.80;;;;;;;6.36;100.00;100164.53;4919548;29;20119;-96
2023/03/19 01:17:38;;;;;;;5.22;1.10;;;;;;;5.95;100.00;100172.28;4919723;29;20139;-96
2023/03/19 01:20:07;;;;;;;6.03;1.00;;;;;;;5.89;100.00;100172.50;4919650;29;20032;-96
2023/03/19 01:22:36;;;;;;;4.13;0.93;;;;;;;5.78;100.00;100196.03;4933823;29;20031;-95
2023/03/19 01:25:03;;;;;;;6.18;1.20;;;;;;;5.30;100.00;100176.63;4955103;28;20222;-95
2023/03/19 01:27:28;;;;;;;6.90;1.10;;;;;;;5.30;100.00;100186.88;4932854;29;20118;-96
2023/03/19 01:29:54;;;;;;;7.60;0.88;;;;;;;5.23;100.00;100190.56;4919559;29;20048;-96
2023/03/19 01:32:19;;;;;;;9.68;1.02;;;;;;;5.13;100.00;100179.84;4919229;29;20040;-95
2023/03/19 01:34:45;;;;;;;11.85;1.65;;;;;;;5.05;100.00;100213.41;4950880;28;20168;-96
2023/03/19 01:37:11;;;;;;;4.20;0.90;;;;;;;5.19;100.00;100235.06;4918581;29;20024;-95
2023/03/19 01:39:37;;;;;;;3.30;0.90;;;;;;;5.19;100.00;100240.19;4919229;29;20036;-95
2023/03/19 01:42:03;;;;;;;5.88;1.08;;;;;;;4.82;100.00;100191.25;4919028;29;20119;-96
2023/03/19 01:44:37;;;;;;;5.97;1.30;;;;;;;4.81;100.00;100222.84;4919158;29;20032;-95
2023/03/19 01:47:10;;;;;;;5.32;1.10;;;;;;;4.79;100.00;100221.22;4918882;29;20083;-95
2023/03/19 01:49:36;;;;;;;1.98;0.70;;;;;;;4.45;100.00;100196.91;4918580;29;20156;-96
2023/03/19 01:52:04;;;;;;;9.60;1.08;;;;;;;4.43;100.00;100219.13;4919061;29;20422;-95
2023/03/19 04:00:53;;;;;;;;;;;;;;;;;;;;;
2023/03/19 08:08:47;;;;;;;9.45;2.08;;;;;;;26.69;28.04;100586.25;5137052;23;20026;31
2023/03/19 08:11:41;;;;;;;8.98;1.38;;;;;;;27.79;26.65;100589.25;4946215;29;20068;-96
2023/03/19 08:16:56;;;;;;;7.32;1.63;;;;;;;27.50;26.10;100580.53;5730078;23;20023;-96
2023/03/19 08:19:24;;;;;;;13.07;2.03;;;;;;;26.12;27.90;100581.81;4925254;29;20032;-96
2023/03/19 08:25:45;;;;;;;6.67;1.50;;;;;;;30.02;23.67;100576.41;4935537;29;20040;-96
2023/03/19 08:28:42;;;;;;;8.10;1.63;;;;;;;30.31;22.85;100582.19;4914185;29;20574;-96
2023/03/19 09:47:31;;;;;;;5.75;1.70;;;;;;;36.78;18.00;100717.25;4954492;29;20047;-96
2023/03/19 09:50:10;;;;;;;6.35;1.75;;;;;;;35.23;18.18;100697.59;4980457;28;20047;-96
2023/03/19 09:53:03;;;;;;;8.15;1.70;;;;;;;35.74;17.37;100703.72;4946802;29;20036;-96
2023/03/19 09:55:52;;;;;;;9.30;1.70;;;;;;;36.81;17.13;100679.06;4944524;29;20472;-96
2023/03/19 10:54:00;;;;;;;6.18;2.13;;;;;;;24.65;28.05;100656.19;4914115;29;20068;-96
2023/03/19 10:59:35;;;;;;;7.18;1.85;;;;;;;30.87;22.20;100608.88;5878886;23;20561;-96
2023/03/19 11:05:54;;;;;;;12.13;1.48;;;;;;;33.96;19.81;100655.94;4952387;23;20046;-95
2023/03/19 11:38:14;;;;;;;;;;;;;;;;;;;;;
2023/03/19 11:41:26;;;;;;;6.63;1.50;;;;;;;27.72;24.76;100703.25;4966737;29;20054;-96
2023/03/19 11:47:43;;;;;;;5.38;1.40;;;;;;;29.52;22.30;100674.56;5344247;23;20043;-96
2023/03/19 11:54:20;;;;;;;5.57;1.10;;;;;;;23.16;29.82;100717.31;4915295;29;20542;-96
2023/03/19 11:56:54;;;;;;;3.08;1.00;;;;;;;22.86;30.70;100658.22;4913895;29;20028;-96
2023/03/19 12:00:01;;;;;;;6.28;1.65;;;;;;;22.13;30.55;100700.88;4915755;29;20024;-94
2023/03/19 12:03:07;;;;;;;2.92;0.95;;;;;;;20.26;34.91;100706.88;4919977;29;20032;-96
2023/03/19 12:05:39;;;;;;;4.55;1.15;;;;;;;19.69;34.72;100674.66;4912558;29;20028;-95
2023/03/19 12:08:16;;;;;;;;;;;;;;;19.43;36.99;100704.00;4915824;29;20036;-95
2023/03/19 12:11:31;;;;;;;10.60;1.77;;;;;;;18.27;37.82;100665.44;4916428;29;19915;-96
2023/03/19 12:14:35;;;;;;;9.93;1.75;;;;;;;16.60;41.28;100670.38;4906875;29;21181;-96
2023/03/19 12:17:32;;;;;;;;;;;;;;;;;;;;;
2023/03/19 12:20:38;;;;;;;;;;;;;;;;;;;;;
2023/03/19 12:26:24;;;;;;;3.40;0.90;;;;;;;17.49;39.61;100686.72;4959326;23;20067;-96
2023/03/19 12:29:50;;;;;;;4.40;1.20;;;;;;;16.95;40.85;100689.41;4929278;29;20062;-96
2023/03/19 12:33:02;;;;;;;5.57;1.13;;;;;;;16.35;41.11;100652.44;4909209;29;20045;-96
2023/03/19 12:35:55;;;;;;;4.97;1.10;;;;;;;15.78;42.08;100654.22;4893246;29;20451;-96
2023/03/19 12:42:07;;;;;;;10.18;1.25;;;;;;;15.81;44.03;100661.78;4918968;29;20063;-96
2023/03/19 12:45:19;;;;;;;;;;;;;;;;;;;;;
2023/03/19 13:32:23;;;;;;;9.18;2.17;;;;;;;15.07;46.34;100688.00;5040675;23;20084;-96
2023/03/19 13:34:48;;;;;;;5.35;1.50;;;;;;;15.06;45.30;100701.94;4961792;28;20071;-96
2023/03/19 13:37:20;;;;;;;9.65;2.05;;;;;;;14.64;47.84;100698.03;4927587;29;20024;-96
2023/03/19 13:39:47;;;;;;;12.88;3.30;;;;;;;13.87;49.76;100680.72;4955824;28;20043;-96
2023/03/19 13:42:19;;;;;;;8.50;2.03;;;;;;;14.24;49.38;100718.94;4923508;29;20028;-96
2023/03/19 13:45:01;;;;;;;;;;;;;;;14.25;49.70;100723.19;4931094;29;20028;-96
2023/03/19 13:47:34;;;;;;;12.02;2.28;;;;;;;13.68;50.58;100712.28;4961448;28;19929;-96
2023/03/19 13:50:23;;;;;;;14.13;1.92;;;;;;;15.41;47.46;100688.97;4927935;29;20050;-96
2023/03/19 13:53:19;;;;;;;14.52;2.47;;;;;;;15.38;47.83;100715.19;4951241;29;20028;-96
2023/03/19 13:59:38;;;;;;;10.60;2.05;;;;;;;14.42;47.87;100660.53;4929560;29;20071;-96
2023/03/19 14:02:25;;;;;;;11.63;2.47;;;;;;;14.66;48.46;100711.75;4924205;29;20056;-96
2023/03/19 14:05:17;;;;;;;15.40;2.00;;;;;;;14.13;49.58;100720.50;4928592;29;20028;-96
2023/03/19 14:07:56;;;;;;;13.38;2.55;;;;;;;14.69;48.27;100675.16;4925084;29;20021;-96
2023/03/19 14:10:38;;;;;;;10.35;2.00;;;;;;;15.19;47.62;100714.88;4925994;29;20040;-96
2023/03/19 14:13:41;;;;;;;11.02;2.35;;;;;;;15.66;46.08;100681.94;4927671;29;20028;-96
2023/03/19 14:17:12;;;;;;;10.27;2.15;;;;;;;15.44;46.78;100672.31;4936525;29;20008;-96
2023/03/19 14:19:50;;;;;;;14.48;1.88;;;;;;;14.83;46.38;100689.78;4956132;29;20020;-96
2023/03/19 14:22:15;;;;;;;14.25;2.13;;;;;;;14.91;48.22;100722.06;4941924;29;20111;-96
2023/03/19 14:24:54;;;;;;;9.93;2.30;;;;;;;14.67;48.19;100677.03;4935776;29;20032;-96
2023/03/19 14:27:59;;;;;;;9.95;2.30;;;;;;;14.64;48.12;100674.66;4953438;29;20024;-96
2023/03/19 14:30:37;;;;;;;14.60;2.40;;;;;;;15.14;46.70;100689.22;4937314;29;20036;-96
2023/03/19 14:33:53;;;;;;;11.15;1.60;;;;;;;15.18;46.96;100684.63;4940542;29;20036;-96
2023/03/19 14:36:29;;;;;;;16.23;1.83;;;;;;;15.70;46.62;100683.38;4922261;29;20039;-96
2023/03/19 14:39:35;;;;;;;8.10;1.80;;;;;;;15.76;46.71;100693.34;4939921;29;20103;-96
2023/03/19 14:45:11;;;;;;;12.15;2.50;;;;;;;15.56;46.00;100692.22;4952367;23;20051;-96
2023/03/19 14:48:06;;;;;;;7.78;1.95;;;;;;;14.67;46.63;100664.03;4936610;29;20043;-96
2023/03/19 14:50:42;;;;;;;7.85;1.70;;;;;;;14.13;49.29;100693.72;4951060;28;20482;-96
2023/03/19 14:53:23;;;;;;;10.27;1.20;;;;;;;13.41;49.44;100664.81;4951681;28;20494;-96
2023/03/19 14:55:51;;;;;;;11.32;1.65;;;;;;;13.28;51.32;100706.25;4939427;29;20103;-96
2023/03/19 14:58:21;;;;;;;12.38;2.10;;;;;;;13.59;50.18;100705.09;4934172;29;20078;-95
2023/03/19 15:00:52;;;;;;;9.25;1.40;;;;;;;13.62;50.11;100689.31;4934658;29;20387;-95
2023/03/19 15:03:26;;;;;;;;;;;;;;;13.30;51.30;100714.78;4930403;29;20051;-96
2023/03/19 15:05:56;;;;;;;11.18;1.83;;;;;;;13.05;52.81;100710.28;4941319;28;19919;-96
2023/03/19 15:08:23;;;;;;;4.68;1.33;;;;;;;12.62;52.44;100676.72;4933870;29;20110;-96
2023/03/19 15:11:02;;;;;;;9.95;2.10;;;;;;;12.78;53.01;100687.78;4934266;29;20031;-96
2023/03/19 15:13:42;;;;;;;6.53;1.70;;;;;;;12.91;54.56;100708.56;4934643;29;20027;-95
2023/03/19 15:16:23;;;;;;;11.45;1.88;;;;;;;13.05;53.13;100699.94;4933474;29;20067;-96
2023/03/19 15:18:49;;;;;;;11.45;1.75;;;;;;;13.47;52.12;100679.97;4938633;29;20043;-93
2023/03/19 15:21:15;;;;;;;10.63;1.80;;;;;;;13.48;51.12;100686.81;4934926;29;20043;-95
2023/03/19 15:23:45;;;;;;;10.05;1.75;;;;;;;13.41;50.96;100699.38;4934350;29;20030;-95
2023/03/19 15:26:11;;;;;;;15.45;2.58;;;;;;;13.44;51.23;100700.91;4931134;29;20040;-95
2023/03/19 15:28:50;;;;;;;8.30;1.58;;;;;;;13.06;50.81;100662.72;4933883;29;20438;-96
2023/03/19 15:31:17;;;;;;;5.85;1.27;;;;;;;13.25;50.45;100680.50;4934722;29;20028;-95
2023/03/19 15:33:44;;;;;;;13.02;2.22;;;;;;;13.30;49.55;100708.75;4934415;29;20470;-96
2023/03/19 15:36:15;;;;;;;7.32;1.70;;;;;;;13.04;50.88;100713.81;4932523;29;20040;-96
2023/03/19 15:38:58;;;;;;;9.38;1.65;;;;;;;12.72;51.39;100716.66;4934447;29;20047;-95
2023/03/19 15:41:27;;;;;;;7.25;1.60;;;;;;;12.46;52.18;100697.56;4930236;29;20513;-94
2023/03/19 15:44:03;;;;;;;;;;;;;;;;;;;;;
2023/03/19 15:46:38;;;;;;;6.28;1.65;;;;;;;12.16;52.64;100706.22;4935687;29;20394;-96
2023/03/19 15:49:10;;;;;;;7.50;1.52;;;;;;;12.15;52.94;100708.94;4921938;29;20028;-96
2023/03/19 15:51:36;;;;;;;7.68;1.50;;;;;;;11.91;53.46;100691.34;4935625;29;20031;-96
2023/03/19 15:54:03;;;;;;;12.93;2.67;;;;;;;11.34;54.09;100698.94;4933292;29;20040;-95
2023/03/19 15:56:30;;;;;;;7.40;1.27;;;;;;;11.81;53.88;100710.88;4931863;29;20447;-95
2023/03/19 15:58:57;;;;;;;8.35;1.20;;;;;;;11.62;54.15;100684.41;4932656;29;20042;-96
2023/03/19 16:01:23;;;;;;;10.05;1.45;;;;;;;11.97;53.38;100701.34;4934117;29;20027;-94
2023/03/19 16:03:57;;;;;;;5.22;1.10;;;;;;;11.91;53.42;100693.09;4931259;29;20459;-96
2023/03/19 16:06:30;;;;;;;8.38;1.50;;;;;;;12.12;53.98;100715.13;4931722;29;20024;-96
2023/03/19 16:09:20;;;;;;;6.10;1.60;;;;;;;12.26;53.46;100729.81;4948512;29;20099;-92
2023/03/19 16:11:45;;;;;;;7.93;1.30;;;;;;;11.80;53.74;100729.88;4931944;29;20110;-95
2023/03/19 16:14:25;;;;;;;7.18;1.52;;;;;;;11.54;54.64;100739.97;4933672;29;20118;-96
2023/03/19 16:16:57;;;;;;;5.97;1.40;;;;;;;11.19;55.15;100741.09;4942562;29;20031;-96
2023/03/19 16:19:40;;;;;;;8.23;1.80;;;;;;;11.10;55.34;100725.22;4955835;29;20035;-96
2023/03/19 16:22:15;;;;;;;8.90;1.92;;;;;;;10.67;55.88;100719.78;4933148;29;20066;-96
2023/03/19 16:24:43;;;;;;;11.13;3.03;;;;;;;10.90;56.85;100744.38;4934328;29;20031;-96
2023/03/19 16:27:18;;;;;;;8.02;2.00;;;;;;;10.90;56.90;100748.72;4931655;29;20047;-96
2023/03/19 16:29:46;;;;;;;11.43;1.90;;;;;;;10.80;56.83;100757.84;4933096;29;20040;-96
2023/03/19 16:32:22;;;;;;;9.63;1.63;;;;;;;10.96;56.34;100753.53;4933961;29;20034;-96
2023/03/19 16:35:11;;;;;;;11.75;2.10;;;;;;;10.87;55.90;100735.94;4935282;29;20384;-94
2023/03/19 16:37:36;;;;;;;8.88;1.60;;;;;;;10.96;55.54;100758.69;4934704;29;20032;-96
2023/03/19 16:40:11;;;;;;;11.18;2.83;;;;;;;11.08;55.10;100752.03;4933343;29;20095;-96
2023/03/19 16:42:39;;;;;;;10.88;1.90;;;;;;;10.70;56.49;100727.38;4933879;29;20067;-96
2023/03/19 16:45:13;;;;;;;13.98;2.70;;;;;;;10.65;55.85;100769.81;4932408;29;20020;-95
2023/03/19 16:47:39;;;;;;;8.15;1.50;;;;;;;10.42;57.14;100733.16;4933534;29;20087;-96
2023/03/19 16:50:05;;;;;;;10.90;3.63;;;;;;;10.46;56.04;100755.31;4934360;29;20036;-96
2023/03/19 16:52:31;;;;;;;9.70;1.67;;;;;;;10.19;56.53;100736.91;4934096;29;20122;-96
2023/03/19 16:54:59;;;;;;;9.57;1.85;;;;;;;9.86;57.85;100735.09;4933832;29;20038;-96
2023/03/19 16:57:25;;;;;;;15.50;2.60;;;;;;;9.84;57.95;100726.59;4933319;29;20059;-96
2023/03/19 16:59:50;;;;;;;14.02;2.22;;;;;;;10.01;58.18;100768.75;4937378;29;20046;-96
2023/03/19 17:02:17;;;;;;;10.77;1.70;;;;;;;9.69;58.81;100735.09;4933641;29;20103;-95
2023/03/19 17:04:42;;;;;;;10.32;2.08;;;;;;;9.54;59.32;100743.56;4931996;29;20025;-95
2023/03/19 17:07:09;;;;;;;11.57;1.90;;;;;;;9.29;59.38;100733.59;4935200;29;20534;-94
2023/03/19 17:09:34;;;;;;;12.30;1.90;;;;;;;9.34;59.26;100727.31;4935682;29;20020;-94
2023/03/19 17:12:00;;;;;;;10.00;1.58;;;;;;;9.51;59.61;100770.31;4934245;29;20040;-95
2023/03/19 17:14:26;;;;;;;8.73;1.73;;;;;;;8.95;60.29;100736.00;4936001;29;20024;-96
2023/03/19 17:16:54;;;;;;;10.38;1.80;;;;;;;8.84;61.54;100763.97;4934518;29;20055;-95
2023/03/19 17:19:22;;;;;;;10.60;1.98;;;;;;;8.53;62.49;100752.47;4937641;29;20082;-96
2023/03/19 17:21:52;;;;;;;9.73;1.73;;;;;;;8.72;62.37;100764.50;4934780;29;20113;-96
2023/03/19 17:24:32;;;;;;;9.52;1.98;;;;;;;8.43;62.81;100738.31;4927770;29;20076;-96
2023/03/19 17:27:01;;;;;;;7.50;2.47;;;;;;;8.62;61.32;100742.69;4946019;29;20090;-95
2023/03/19 17:29:27;;;;;;;6.20;1.10;;;;;;;8.45;62.27;100756.28;4949045;29;20028;-95
2023/03/19 17:31:54;;;;;;;15.43;2.30;;;;;;;8.41;62.44;100760.69;4936782;29;20031;-95
2023/03/19 17:34:32;;;;;;;14.77;4.32;;;;;;;8.15;62.36;100742.06;4934226;29;20020;-96
2023/03/19 17:37:00;;;;;;;15.20;1.90;;;;;;;8.00;62.24;100750.44;4939251;29;20136;-95
2023/03/19 17:39:28;;;;;;;16.08;3.13;;;;;;;7.98;63.01;100752.22;4936803;29;20141;-96
2023/03/19 17:41:54;;;;;;;14.25;2.40;;;;;;;8.27;62.41;100788.75;4938678;29;20494;-96
2023/03/19 17:44:20;;;;;;;14.38;3.53;;;;;;;8.22;61.38;100767.50;4937270;29;20068;-96
2023/03/19 17:46:48;;;;;;;10.00;2.67;;;;;;;8.05;61.25;100751.06;4948239;29;20031;-95
2023/03/19 17:49:31;;;;;;;8.98;1.83;;;;;;;8.06;62.17;100786.16;4938731;29;20083;-96
2023/03/19 17:52:00;;;;;;;9.35;1.70;;;;;;;8.21;60.57;100799.28;4935732;29;20032;-95
2023/03/19 17:54:31;;;;;;;10.30;1.80;;;;;;;7.91;60.49;100748.22;4933010;29;20399;-95
2023/03/19 17:56:56;;;;;;;8.37;2.20;;;;;;;7.93;59.90;100765.25;4936106;29;20052;-95
2023/03/19 17:59:22;;;;;;;10.25;3.00;;;;;;;7.92;60.36;100771.31;4937111;29;20289;-95
2023/03/19 18:01:50;;;;;;;8.30;1.63;;;;;;;7.77;61.31;100777.06;4939083;29;20119;-94
2023/03/19 18:04:18;;;;;;;31.45;18.02;;;;;;;7.68;62.05;100762.88;4936036;29;20047;-95
2023/03/19 18:06:55;;;;;;;9.68;3.90;;;;;;;7.47;62.86;100754.25;4935504;29;20020;-94
2023/03/19 18:09:22;;;;;;;10.00;2.47;;;;;;;7.58;64.12;100779.50;4932797;29;20513;-96
2023/03/19 18:11:47;;;;;;;14.70;2.70;;;;;;;7.34;64.82;100759.94;4949208;29;20043;-95
2023/03/19 18:14:13;;;;;;;25.55;6.43;;;;;;;7.52;65.08;100759.22;4999622;23;20441;-96
2023/03/19 18:16:42;;;;;;;17.35;6.70;;;;;;;7.40;65.20;100737.44;4930582;29;20032;-96
2023/03/19 18:19:34;;;;;;;26.30;7.95;;;;;;;7.37;67.53;100752.13;4927360;29;20521;-95
2023/03/19 18:22:00;;;;;;;13.70;3.25;;;;;;;7.13;69.94;100730.81;4920004;29;20063;-96
2023/03/19 18:24:26;;;;;;;14.98;3.50;;;;;;;7.29;68.78;100748.13;4921963;29;20060;-96
2023/03/19 18:27:12;;;;;;;10.65;2.72;;;;;;;7.19;69.40;100728.00;4914973;29;20383;-96
2023/03/19 18:29:45;;;;;;;11.88;2.45;;;;;;;7.06;70.34;100740.47;4919367;29;20048;-96
2023/03/19 18:32:31;;;;;;;5.47;1.73;;;;;;;7.29;69.77;100798.63;4903452;29;20028;-96
2023/03/19 18:35:40;;;;;;;16.83;2.55;;;;;;;7.11;70.06;100774.50;4922053;29;20122;-96
2023/03/19 18:42:36;;;;;;;11.88;4.40;;;;;;;7.18;69.88;100783.63;4885626;29;20044;-96
2023/03/19 18:48:41;;;;;;;14.55;2.85;;;;;;;7.20;69.25;100825.50;4884522;29;20096;-95
2023/03/19 19:41:13;;;;;;;13.98;2.50;;;;;;;6.75;73.71;100761.28;4936293;29;20052;-95
2023/03/19 19:43:41;;;;;;;18.60;3.10;;;;;;;6.72;73.54;100792.19;4926889;29;20314;-95
2023/03/19 19:46:12;;;;;;;13.00;4.18;;;;;;;6.78;73.95;100777.41;4930114;29;20088;-95
2023/03/19 19:48:38;;;;;;;20.33;4.30;;;;;;;6.78;73.77;100777.41;4925373;29;20027;-95
2023/03/19 19:51:05;;;;;;;15.93;2.83;;;;;;;6.72;74.31;100777.63;4925279;29;20039;-95
2023/03/19 19:53:33;;;;;;;14.55;3.60;;;;;;;6.51;75.18;100755.31;4927435;29;20082;-95
2023/03/19 19:56:24;;;;;;;11.55;2.17;;;;;;;6.73;75.56;100776.75;4933119;29;20083;-96
2023/03/19 19:58:56;;;;;;;12.13;2.92;;;;;;;6.74;75.39;100770.72;4929688;29;20490;-96
2023/03/19 20:01:29;;;;;;;15.30;1.80;;;;;;;6.83;75.76;100779.81;4925708;29;20051;-96
2023/03/19 20:03:57;;;;;;;14.32;2.53;;;;;;;7.04;75.00;100783.31;4935796;29;20047;-96
2023/03/19 20:06:44;;;;;;;13.55;2.92;;;;;;;6.78;75.98;100785.13;4936359;29;20035;-95
2023/03/19 20:09:13;;;;;;;12.60;4.00;;;;;;;6.90;75.62;100765.00;4934512;29;20074;-96
2023/03/19 20:11:56;;;;;;;21.52;3.28;;;;;;;7.17;74.81;100794.81;4936964;29;20471;-96
2023/03/19 20:18:34;;;;;;;;;;;;;;;;;;;;;
2023/03/19 20:25:05;;;;;;;;;;;;;;;;;;;;;
2023/03/19 20:28:25;;;;;;;13.30;2.17;;;;;;;6.86;78.51;100815.63;4950596;23;20107;-96
2023/03/19 20:30:43;;;;;;;15.73;2.53;;;;;;;7.03;77.77;100820.97;4934844;29;20035;-96
2023/03/19 20:33:22;;;;;;;;;;;;;;;;;;;;;
2023/03/19 20:35:54;;;;;;;14.25;2.80;;;;;;;6.97;78.50;100828.06;4932161;29;20112;-95
2023/03/19 20:38:19;;;;;;;24.63;4.60;;;;;;;6.72;78.39;100793.03;4929840;29;20027;-96
2023/03/19 20:41:25;;;;;;;13.38;2.60;;;;;;;6.93;79.80;100822.22;4938071;29;20561;-96
2023/03/19 20:44:07;;;;;;;12.30;2.72;;;;;;;6.75;79.44;100813.41;4927830;29;20070;-96
2023/03/19 20:46:57;;;;;;;15.30;3.03;;;;;;;6.74;80.45;100790.41;4939418;29;20083;-96
2023/03/19 20:49:23;;;;;;;12.15;2.42;;;;;;;6.90;80.78;100821.47;4940860;29;20027;-94
2023/03/19 20:52:18;;;;;;;19.08;3.13;;;;;;;6.74;81.35;100798.09;4938368;29;20034;-96
2023/03/19 21:02:47;;;;;;;24.20;3.30;;;;;;;6.69;82.72;100788.00;5837873;23;20058;-96
2023/03/19 21:05:21;;;;;;;7.20;2.33;;;;;;;6.86;82.99;100811.31;4970140;28;20023;-95
2023/03/19 21:07:52;;;;;;;12.45;2.42;;;;;;;6.84;82.86;100804.56;4946700;29;20031;-96
2023/03/19 21:10:38;;;;;;;12.30;2.88;;;;;;;6.73;82.00;100784.44;4958160;28;20102;-96
2023/03/19 21:13:14;;;;;;;10.60;2.22;;;;;;;6.76;81.95;100791.19;4962947;29;20035;-96
2023/03/19 21:15:48;;;;;;;20.17;3.60;;;;;;;6.65;82.87;100787.25;4952499;28;20577;-96
2023/03/19 21:18:24;;;;;;;21.13;3.17;;;;;;;6.61;84.13;100766.94;4962263;28;20028;-96
2023/03/19 21:20:53;;;;;;;10.77;2.78;;;;;;;6.73;84.34;100797.28;4959527;28;20035;-96
2023/03/19 21:23:25;;;;;;;23.65;3.60;;;;;;;6.85;83.46;100824.19;4955210;28;20027;-96
2023/03/19 21:25:51;;;;;;;13.85;3.30;;;;;;;6.71;83.58;100775.97;4966337;29;20035;-96
2023/03/19 21:28:33;;;;;;;13.88;2.45;;;;;;;6.75;82.77;100771.53;4969906;28;20099;-96
2023/03/19 21:31:22;;;;;;;13.93;2.53;;;;;;;6.96;81.68;100785.34;4967769;28;20035;-96
2023/03/19 21:37:21;;;;;;;23.75;5.63;;;;;;;6.59;83.19;100766.97;4993733;23;20057;-96
2023/03/19 21:40:08;;;;;;;;;;;;;;;;;;;;;
2023/03/19 21:42:33;;;;;;;16.17;2.83;;;;;;;6.74;82.88;100759.63;4965119;29;20107;-96
2023/03/19 21:44:59;;;;;;;15.93;3.67;;;;;;;6.70;83.39;100763.19;4964571;28;20062;-96
2023/03/19 21:47:30;;;;;;;16.27;3.17;;;;;;;6.59;84.66;100755.88;4950195;28;20029;-96
2023/03/19 21:50:01;;;;;;;15.70;3.03;;;;;;;6.75;83.79;100777.50;4961265;28;20426;-96
2023/03/19 21:53:00;;;;;;;;;;;;;;;;;;;;;
2023/03/19 21:56:11;;;;;;;14.40;3.27;;;;;;;6.45;85.26;100746.13;4969539;28;20102;-96
2023/03/19 21:58:51;;;;;;;19.40;3.10;;;;;;;6.37;86.12;100754.06;4946699;28;20039;-96
2023/03/19 22:05:12;;;;;;;16.67;3.10;;;;;;;6.10;89.03;100760.16;4974398;28;20042;-96
2023/03/19 22:15:52;;;;;;;18.38;3.83;;;;;;;5.66;93.15;100757.31;4949305;29;20047;-96
2023/03/19 22:19:17;;;;;;;;;;;;;;;;;;;;;
